sensor_id;sensor_type;location;lat;lon;timestamp;P1;durP1;ratioP1;P2;durP2;ratioP2
57297;SDS011;43147;50.972;18.210;2023-06-10T00:02:03;50.90;;;44.70;;
57297;SDS011;43147;50.972;18.210;2023-06-10T00:04:29;52.50;;;46.80;;
57297;SDS011;43147;50.972;18.210;2023-06-10T00:06:55;46.60;;;41.80;;
57297;SDS011;43147;50.972;18.210;2023-06-10T00:09:22;50.10;;;42.90;;
57297;SDS011;43147;50.972;18.210;2023-06-10T00:11:48;47.30;;;42.10;;
57297;SDS011;43147;50.972;18.210;2023-06-10T00:14:14;46.90;;;41.90;;
57297;SDS011;43147;50.972;18.210;2023-06-10T00:16:39;48.60;;;43.10;;
57297;SDS011;43147;50.972;18.210;2023-06-10T00:19:05;49.50;;;44.50;;
57297;SDS011;43147;50.972;18.210;2023-06-10T00:21:31;45.10;;;40.50;;
57297;SDS011;43147;50.972;18.210;2023-06-10T00:24:08;47.10;;;42.20;;
57297;SDS011;43147;50.972;18.210;2023-06-10T00:26:40;45.60;;;40.90;;
57297;SDS011;43147;50.972;18.210;2023-06-10T00:29:06;48.30;;;41.50;;
57297;SDS011;43147;50.972;18.210;2023-06-10T00:31:36;43.20;;;38.50;;
57297;SDS011;43147;50.972;18.210;2023-06-10T00:34:03;43.80;;;39.10;;
57297;SDS011;43147;50.972;18.210;2023-06-10T00:36:29;42.30;;;38.10;;
57297;SDS011;43147;50.972;18.210;2023-06-10T00:38:55;45.30;;;39.80;;
57297;SDS011;43147;50.972;18.210;2023-06-10T00:41:20;45.80;;;40.70;;
57297;SDS011;43147;50.972;18.210;2023-06-10T00:43:46;46.70;;;42.00;;
57297;SDS011;43147;50.972;18.210;2023-06-10T00:46:11;45.70;;;40.90;;
57297;SDS011;43147;50.972;18.210;2023-06-10T00:48:39;48.20;;;43.40;;
57297;SDS011;43147;50.972;18.210;2023-06-10T00:51:05;44.80;;;39.30;;
57297;SDS011;43147;50.972;18.210;2023-06-10T00:53:31;46.20;;;41.50;;
57297;SDS011;43147;50.972;18.210;2023-06-10T00:55:57;47.30;;;42.10;;
57297;SDS011;43147;50.972;18.210;2023-06-10T00:58:24;44.30;;;39.80;;
57297;SDS011;43147;50.972;18.210;2023-06-10T01:00:50;45.40;;;40.80;;
57297;SDS011;43147;50.972;18.210;2023-06-10T01:03:17;46.10;;;41.20;;
57297;SDS011;43147;50.972;18.210;2023-06-10T01:05:44;47.40;;;42.40;;
57297;SDS011;43147;50.972;18.210;2023-06-10T01:10:46;49.70;;;44.60;;
57297;SDS011;43147;50.972;18.210;2023-06-10T01:13:25;53.70;;;44.60;;
57297;SDS011;43147;50.972;18.210;2023-06-10T01:15:54;53.40;;;46.80;;
57297;SDS011;43147;50.972;18.210;2023-06-10T01:18:21;53.40;;;45.90;;
57297;SDS011;43147;50.972;18.210;2023-06-10T01:20:47;50.10;;;44.70;;
57297;SDS011;43147;50.972;18.210;2023-06-10T01:23:14;49.10;;;43.90;;
57297;SDS011;43147;50.972;18.210;2023-06-10T01:25:46;48.40;;;43.30;;
57297;SDS011;43147;50.972;18.210;2023-06-10T01:31:09;48.00;;;43.30;;
57297;SDS011;43147;50.972;18.210;2023-06-10T01:33:45;49.10;;;43.10;;
57297;SDS011;43147;50.972;18.210;2023-06-10T01:36:13;48.50;;;43.40;;
57297;SDS011;43147;50.972;18.210;2023-06-10T01:38:45;51.00;;;45.50;;
57297;SDS011;43147;50.972;18.210;2023-06-10T01:41:12;51.20;;;46.00;;
57297;SDS011;43147;50.972;18.210;2023-06-10T01:43:39;51.30;;;46.00;;
57297;SDS011;43147;50.972;18.210;2023-06-10T01:46:04;52.70;;;47.10;;
57297;SDS011;43147;50.972;18.210;2023-06-10T01:48:31;52.10;;;46.60;;
57297;SDS011;43147;50.972;18.210;2023-06-10T01:50:57;52.10;;;46.80;;
57297;SDS011;43147;50.972;18.210;2023-06-10T01:53:23;52.50;;;46.10;;
57297;SDS011;43147;50.972;18.210;2023-06-10T01:55:49;55.30;;;49.40;;
57297;SDS011;43147;50.972;18.210;2023-06-10T01:58:15;54.30;;;48.50;;
57297;SDS011;43147;50.972;18.210;2023-06-10T02:00:40;54.90;;;47.50;;
57297;SDS011;43147;50.972;18.210;2023-06-10T02:03:06;55.40;;;46.30;;
57297;SDS011;43147;50.972;18.210;2023-06-10T02:05:31;51.60;;;45.30;;
57297;SDS011;43147;50.972;18.210;2023-06-10T02:07:57;53.30;;;47.60;;
57297;SDS011;43147;50.972;18.210;2023-06-10T02:10:23;49.90;;;44.60;;
57297;SDS011;43147;50.972;18.210;2023-06-10T02:12:49;53.30;;;47.00;;
57297;SDS011;43147;50.972;18.210;2023-06-10T02:15:14;51.60;;;46.10;;
57297;SDS011;43147;50.972;18.210;2023-06-10T02:17:40;53.50;;;47.60;;
57297;SDS011;43147;50.972;18.210;2023-06-10T02:20:05;51.40;;;45.90;;
57297;SDS011;43147;50.972;18.210;2023-06-10T02:22:32;60.90;;;46.90;;
57297;SDS011;43147;50.972;18.210;2023-06-10T02:24:58;50.40;;;44.90;;
57297;SDS011;43147;50.972;18.210;2023-06-10T02:27:24;49.00;;;43.70;;
57297;SDS011;43147;50.972;18.210;2023-06-10T02:29:50;47.30;;;42.20;;
57297;SDS011;43147;50.972;18.210;2023-06-10T02:32:16;48.60;;;43.20;;
57297;SDS011;43147;50.972;18.210;2023-06-10T02:34:42;49.20;;;42.60;;
57297;SDS011;43147;50.972;18.210;2023-06-10T02:37:08;48.40;;;43.40;;
57297;SDS011;43147;50.972;18.210;2023-06-10T02:39:34;48.50;;;43.20;;
57297;SDS011;43147;50.972;18.210;2023-06-10T02:42:00;49.60;;;44.40;;
57297;SDS011;43147;50.972;18.210;2023-06-10T02:44:25;50.20;;;44.50;;
57297;SDS011;43147;50.972;18.210;2023-06-10T02:46:51;46.30;;;41.50;;
57297;SDS011;43147;50.972;18.210;2023-06-10T02:49:17;49.40;;;42.40;;
57297;SDS011;43147;50.972;18.210;2023-06-10T02:51:42;47.60;;;42.50;;
57297;SDS011;43147;50.972;18.210;2023-06-10T02:54:08;47.00;;;41.40;;
57297;SDS011;43147;50.972;18.210;2023-06-10T02:56:33;48.50;;;43.40;;
57297;SDS011;43147;50.972;18.210;2023-06-10T02:59:00;48.50;;;42.10;;
57297;SDS011;43147;50.972;18.210;2023-06-10T03:01:25;49.10;;;43.10;;
57297;SDS011;43147;50.972;18.210;2023-06-10T03:03:51;51.30;;;44.60;;
57297;SDS011;43147;50.972;18.210;2023-06-10T03:06:18;47.50;;;42.50;;
57297;SDS011;43147;50.972;18.210;2023-06-10T03:08:43;50.50;;;44.90;;
57297;SDS011;43147;50.972;18.210;2023-06-10T03:11:11;49.20;;;43.60;;
57297;SDS011;43147;50.972;18.210;2023-06-10T03:13:38;47.70;;;42.80;;
57297;SDS011;43147;50.972;18.210;2023-06-10T03:16:04;47.60;;;42.90;;
57297;SDS011;43147;50.972;18.210;2023-06-10T03:18:30;48.30;;;43.50;;
57297;SDS011;43147;50.972;18.210;2023-06-10T03:20:56;46.30;;;41.70;;
57297;SDS011;43147;50.972;18.210;2023-06-10T03:23:22;45.00;;;40.60;;
57297;SDS011;43147;50.972;18.210;2023-06-10T03:25:48;47.00;;;41.20;;
57297;SDS011;43147;50.972;18.210;2023-06-10T03:28:14;44.40;;;39.30;;
57297;SDS011;43147;50.972;18.210;2023-06-10T03:30:40;44.50;;;39.90;;
57297;SDS011;43147;50.972;18.210;2023-06-10T03:33:05;41.20;;;37.00;;
57297;SDS011;43147;50.972;18.210;2023-06-10T03:35:31;41.20;;;36.60;;
57297;SDS011;43147;50.972;18.210;2023-06-10T03:37:58;42.00;;;37.50;;
57297;SDS011;43147;50.972;18.210;2023-06-10T03:40:24;41.60;;;37.30;;
57297;SDS011;43147;50.972;18.210;2023-06-10T03:42:49;39.50;;;35.60;;
57297;SDS011;43147;50.972;18.210;2023-06-10T03:45:15;43.70;;;38.20;;
57297;SDS011;43147;50.972;18.210;2023-06-10T03:47:41;39.60;;;35.50;;
57297;SDS011;43147;50.972;18.210;2023-06-10T03:50:08;41.30;;;36.90;;
57297;SDS011;43147;50.972;18.210;2023-06-10T03:52:35;39.70;;;35.60;;
57297;SDS011;43147;50.972;18.210;2023-06-10T03:55:01;39.90;;;35.80;;
57297;SDS011;43147;50.972;18.210;2023-06-10T03:57:28;38.80;;;34.90;;
57297;SDS011;43147;50.972;18.210;2023-06-10T03:59:54;38.70;;;34.50;;
57297;SDS011;43147;50.972;18.210;2023-06-10T04:02:20;36.20;;;32.30;;
57297;SDS011;43147;50.972;18.210;2023-06-10T04:04:46;35.60;;;32.10;;
57297;SDS011;43147;50.972;18.210;2023-06-10T04:07:12;34.90;;;31.10;;
57297;SDS011;43147;50.972;18.210;2023-06-10T04:09:41;34.90;;;31.40;;
57297;SDS011;43147;50.972;18.210;2023-06-10T04:12:08;34.60;;;30.90;;
57297;SDS011;43147;50.972;18.210;2023-06-10T04:14:35;35.20;;;31.30;;
57297;SDS011;43147;50.972;18.210;2023-06-10T04:17:04;35.80;;;30.70;;
57297;SDS011;43147;50.972;18.210;2023-06-10T04:19:32;32.70;;;29.50;;
57297;SDS011;43147;50.972;18.210;2023-06-10T04:22:00;32.90;;;28.50;;
57297;SDS011;43147;50.972;18.210;2023-06-10T04:24:26;30.30;;;26.30;;
57297;SDS011;43147;50.972;18.210;2023-06-10T04:26:51;28.20;;;25.30;;
57297;SDS011;43147;50.972;18.210;2023-06-10T04:29:17;28.00;;;24.90;;
57297;SDS011;43147;50.972;18.210;2023-06-10T04:31:42;25.90;;;23.20;;
57297;SDS011;43147;50.972;18.210;2023-06-10T04:34:08;25.30;;;22.80;;
57297;SDS011;43147;50.972;18.210;2023-06-10T04:36:33;27.70;;;22.60;;
57297;SDS011;43147;50.972;18.210;2023-06-10T04:38:59;29.20;;;21.20;;
57297;SDS011;43147;50.972;18.210;2023-06-10T04:41:25;23.20;;;20.60;;
57297;SDS011;43147;50.972;18.210;2023-06-10T04:43:52;23.10;;;20.60;;
57297;SDS011;43147;50.972;18.210;2023-06-10T04:46:19;22.70;;;20.50;;
57297;SDS011;43147;50.972;18.210;2023-06-10T04:48:44;29.50;;;22.30;;
57297;SDS011;43147;50.972;18.210;2023-06-10T04:51:12;23.90;;;20.60;;
57297;SDS011;43147;50.972;18.210;2023-06-10T04:53:39;23.30;;;21.10;;
57297;SDS011;43147;50.972;18.210;2023-06-10T04:56:04;24.20;;;20.90;;
57297;SDS011;43147;50.972;18.210;2023-06-10T04:58:30;23.70;;;21.30;;
57297;SDS011;43147;50.972;18.210;2023-06-10T05:00:56;24.90;;;22.30;;
57297;SDS011;43147;50.972;18.210;2023-06-10T05:03:21;22.80;;;20.40;;
57297;SDS011;43147;50.972;18.210;2023-06-10T05:05:47;25.00;;;18.60;;
57297;SDS011;43147;50.972;18.210;2023-06-10T05:08:12;20.10;;;17.30;;
57297;SDS011;43147;50.972;18.210;2023-06-10T05:10:38;18.30;;;16.30;;
57297;SDS011;43147;50.972;18.210;2023-06-10T05:13:03;20.40;;;15.40;;
57297;SDS011;43147;50.972;18.210;2023-06-10T05:15:30;14.10;;;12.80;;
57297;SDS011;43147;50.972;18.210;2023-06-10T05:17:56;15.50;;;12.50;;
57297;SDS011;43147;50.972;18.210;2023-06-10T05:20:23;16.20;;;12.10;;
57297;SDS011;43147;50.972;18.210;2023-06-10T05:22:50;11.60;;;10.50;;
57297;SDS011;43147;50.972;18.210;2023-06-10T05:25:16;17.50;;;11.50;;
57297;SDS011;43147;50.972;18.210;2023-06-10T05:27:42;11.80;;;10.60;;
57297;SDS011;43147;50.972;18.210;2023-06-10T05:30:09;12.80;;;10.60;;
57297;SDS011;43147;50.972;18.210;2023-06-10T05:32:35;11.80;;;10.60;;
57297;SDS011;43147;50.972;18.210;2023-06-10T05:35:01;11.00;;;9.90;;
57297;SDS011;43147;50.972;18.210;2023-06-10T05:37:28;11.20;;;10.10;;
57297;SDS011;43147;50.972;18.210;2023-06-10T05:39:54;12.40;;;9.30;;
57297;SDS011;43147;50.972;18.210;2023-06-10T05:42:20;9.90;;;8.50;;
57297;SDS011;43147;50.972;18.210;2023-06-10T05:44:45;11.90;;;8.00;;
57297;SDS011;43147;50.972;18.210;2023-06-10T05:47:11;9.60;;;6.80;;
57297;SDS011;43147;50.972;18.210;2023-06-10T05:49:37;7.40;;;6.00;;
57297;SDS011;43147;50.972;18.210;2023-06-10T05:52:03;10.00;;;6.50;;
57297;SDS011;43147;50.972;18.210;2023-06-10T05:54:29;7.90;;;6.40;;
57297;SDS011;43147;50.972;18.210;2023-06-10T05:56:54;6.60;;;5.90;;
57297;SDS011;43147;50.972;18.210;2023-06-10T05:59:20;6.70;;;6.00;;
57297;SDS011;43147;50.972;18.210;2023-06-10T06:01:48;10.00;;;5.90;;
57297;SDS011;43147;50.972;18.210;2023-06-10T06:04:15;7.50;;;5.20;;
57297;SDS011;43147;50.972;18.210;2023-06-10T06:06:41;6.60;;;4.70;;
57297;SDS011;43147;50.972;18.210;2023-06-10T06:09:07;7.00;;;4.90;;
57297;SDS011;43147;50.972;18.210;2023-06-10T06:11:33;8.40;;;5.30;;
57297;SDS011;43147;50.972;18.210;2023-06-10T06:13:59;7.30;;;5.70;;
57297;SDS011;43147;50.972;18.210;2023-06-10T06:16:27;8.60;;;5.50;;
57297;SDS011;43147;50.972;18.210;2023-06-10T06:18:53;6.10;;;5.50;;
57297;SDS011;43147;50.972;18.210;2023-06-10T06:21:18;11.10;;;6.00;;
57297;SDS011;43147;50.972;18.210;2023-06-10T06:23:44;7.00;;;6.20;;
57297;SDS011;43147;50.972;18.210;2023-06-10T06:26:10;12.10;;;6.20;;
57297;SDS011;43147;50.972;18.210;2023-06-10T06:28:35;7.00;;;6.30;;
57297;SDS011;43147;50.972;18.210;2023-06-10T06:31:01;8.90;;;6.50;;
57297;SDS011;43147;50.972;18.210;2023-06-10T06:33:26;8.70;;;6.80;;
57297;SDS011;43147;50.972;18.210;2023-06-10T06:35:52;7.50;;;6.30;;
57297;SDS011;43147;50.972;18.210;2023-06-10T06:38:17;9.80;;;7.60;;
57297;SDS011;43147;50.972;18.210;2023-06-10T06:40:43;8.50;;;7.40;;
57297;SDS011;43147;50.972;18.210;2023-06-10T06:43:09;10.90;;;7.60;;
57297;SDS011;43147;50.972;18.210;2023-06-10T06:45:34;9.30;;;7.30;;
57297;SDS011;43147;50.972;18.210;2023-06-10T06:48:00;7.10;;;6.10;;
57297;SDS011;43147;50.972;18.210;2023-06-10T06:50:26;13.00;;;6.90;;
57297;SDS011;43147;50.972;18.210;2023-06-10T06:52:51;8.70;;;7.10;;
57297;SDS011;43147;50.972;18.210;2023-06-10T06:55:17;7.10;;;6.40;;
57297;SDS011;43147;50.972;18.210;2023-06-10T06:57:42;6.60;;;6.00;;
57297;SDS011;43147;50.972;18.210;2023-06-10T07:00:08;7.10;;;6.40;;
57297;SDS011;43147;50.972;18.210;2023-06-10T07:02:35;5.10;;;4.60;;
57297;SDS011;43147;50.972;18.210;2023-06-10T07:05:01;6.30;;;5.20;;
57297;SDS011;43147;50.972;18.210;2023-06-10T07:07:27;7.30;;;5.20;;
57297;SDS011;43147;50.972;18.210;2023-06-10T07:09:52;6.80;;;5.90;;
57297;SDS011;43147;50.972;18.210;2023-06-10T07:12:19;7.10;;;6.00;;
57297;SDS011;43147;50.972;18.210;2023-06-10T07:14:47;7.40;;;6.60;;
57297;SDS011;43147;50.972;18.210;2023-06-10T07:17:13;7.40;;;6.70;;
57297;SDS011;43147;50.972;18.210;2023-06-10T07:19:38;9.30;;;7.50;;
57297;SDS011;43147;50.972;18.210;2023-06-10T07:22:05;7.80;;;7.00;;
57297;SDS011;43147;50.972;18.210;2023-06-10T07:24:31;9.80;;;8.40;;
57297;SDS011;43147;50.972;18.210;2023-06-10T07:26:56;14.70;;;9.40;;
57297;SDS011;43147;50.972;18.210;2023-06-10T07:29:22;10.70;;;9.00;;
57297;SDS011;43147;50.972;18.210;2023-06-10T07:31:47;15.90;;;9.20;;
57297;SDS011;43147;50.972;18.210;2023-06-10T07:34:15;13.70;;;9.50;;
57297;SDS011;43147;50.972;18.210;2023-06-10T07:36:41;10.20;;;9.20;;
57297;SDS011;43147;50.972;18.210;2023-06-10T07:39:06;12.60;;;8.20;;
57297;SDS011;43147;50.972;18.210;2023-06-10T07:41:33;8.20;;;7.10;;
57297;SDS011;43147;50.972;18.210;2023-06-10T07:43:59;9.30;;;6.90;;
57297;SDS011;43147;50.972;18.210;2023-06-10T07:46:24;7.50;;;6.60;;
57297;SDS011;43147;50.972;18.210;2023-06-10T07:48:50;8.20;;;6.80;;
57297;SDS011;43147;50.972;18.210;2023-06-10T07:51:16;8.20;;;7.20;;
57297;SDS011;43147;50.972;18.210;2023-06-10T07:53:42;8.20;;;7.40;;
57297;SDS011;43147;50.972;18.210;2023-06-10T07:56:08;8.60;;;7.40;;
57297;SDS011;43147;50.972;18.210;2023-06-10T07:58:33;8.80;;;8.00;;
57297;SDS011;43147;50.972;18.210;2023-06-10T08:00:59;11.10;;;8.10;;
57297;SDS011;43147;50.972;18.210;2023-06-10T08:03:24;9.30;;;8.00;;
57297;SDS011;43147;50.972;18.210;2023-06-10T08:05:50;9.80;;;7.60;;
57297;SDS011;43147;50.972;18.210;2023-06-10T08:08:16;9.90;;;8.00;;
57297;SDS011;43147;50.972;18.210;2023-06-10T08:10:41;8.70;;;7.90;;
57297;SDS011;43147;50.972;18.210;2023-06-10T08:13:07;8.10;;;7.40;;
57297;SDS011;43147;50.972;18.210;2023-06-10T08:15:33;8.00;;;6.90;;
57297;SDS011;43147;50.972;18.210;2023-06-10T08:18:01;8.40;;;6.00;;
57297;SDS011;43147;50.972;18.210;2023-06-10T08:20:27;7.70;;;5.70;;
57297;SDS011;43147;50.972;18.210;2023-06-10T08:22:52;6.10;;;5.50;;
57297;SDS011;43147;50.972;18.210;2023-06-10T08:25:18;9.30;;;5.40;;
57297;SDS011;43147;50.972;18.210;2023-06-10T08:27:44;7.00;;;6.00;;
57297;SDS011;43147;50.972;18.210;2023-06-10T08:30:09;8.00;;;5.30;;
57297;SDS011;43147;50.972;18.210;2023-06-10T08:32:38;5.80;;;5.30;;
57297;SDS011;43147;50.972;18.210;2023-06-10T08:35:04;5.20;;;4.20;;
57297;SDS011;43147;50.972;18.210;2023-06-10T08:37:30;6.00;;;5.00;;
57297;SDS011;43147;50.972;18.210;2023-06-10T08:39:55;7.60;;;4.10;;
57297;SDS011;43147;50.972;18.210;2023-06-10T08:45:01;6.70;;;4.50;;
57297;SDS011;43147;50.972;18.210;2023-06-10T08:47:28;5.70;;;4.10;;
57297;SDS011;43147;50.972;18.210;2023-06-10T08:49:56;5.40;;;4.00;;
57297;SDS011;43147;50.972;18.210;2023-06-10T08:52:26;5.30;;;3.70;;
57297;SDS011;43147;50.972;18.210;2023-06-10T08:55:02;5.00;;;4.30;;
57297;SDS011;43147;50.972;18.210;2023-06-10T08:57:30;4.40;;;3.90;;
57297;SDS011;43147;50.972;18.210;2023-06-10T08:59:57;6.50;;;4.00;;
57297;SDS011;43147;50.972;18.210;2023-06-10T09:02:27;4.90;;;4.40;;
57297;SDS011;43147;50.972;18.210;2023-06-10T09:04:52;7.50;;;4.80;;
57297;SDS011;43147;50.972;18.210;2023-06-10T09:07:19;4.50;;;4.00;;
57297;SDS011;43147;50.972;18.210;2023-06-10T09:09:45;6.30;;;4.40;;
57297;SDS011;43147;50.972;18.210;2023-06-10T09:12:11;11.80;;;4.70;;
57297;SDS011;43147;50.972;18.210;2023-06-10T09:14:38;5.50;;;4.40;;
57297;SDS011;43147;50.972;18.210;2023-06-10T09:17:05;7.20;;;4.80;;
57297;SDS011;43147;50.972;18.210;2023-06-10T09:19:31;7.30;;;5.10;;
57297;SDS011;43147;50.972;18.210;2023-06-10T09:21:57;6.10;;;5.20;;
57297;SDS011;43147;50.972;18.210;2023-06-10T09:24:23;5.30;;;4.80;;
57297;SDS011;43147;50.972;18.210;2023-06-10T09:26:49;5.90;;;5.00;;
57297;SDS011;43147;50.972;18.210;2023-06-10T09:29:16;6.00;;;5.20;;
57297;SDS011;43147;50.972;18.210;2023-06-10T09:31:42;8.70;;;5.00;;
57297;SDS011;43147;50.972;18.210;2023-06-10T09:34:09;6.20;;;5.40;;
57297;SDS011;43147;50.972;18.210;2023-06-10T09:36:36;6.70;;;5.70;;
57297;SDS011;43147;50.972;18.210;2023-06-10T09:39:03;7.00;;;5.90;;
57297;SDS011;43147;50.972;18.210;2023-06-10T09:41:35;7.60;;;5.70;;
57297;SDS011;43147;50.972;18.210;2023-06-10T09:44:09;6.80;;;5.80;;
57297;SDS011;43147;50.972;18.210;2023-06-10T09:46:42;9.90;;;6.20;;
57297;SDS011;43147;50.972;18.210;2023-06-10T09:49:11;9.00;;;6.10;;
57297;SDS011;43147;50.972;18.210;2023-06-10T09:51:36;9.10;;;5.90;;
57297;SDS011;43147;50.972;18.210;2023-06-10T09:54:02;7.20;;;6.20;;
57297;SDS011;43147;50.972;18.210;2023-06-10T09:56:34;8.60;;;6.30;;
57297;SDS011;43147;50.972;18.210;2023-06-10T09:59:01;8.60;;;5.90;;
57297;SDS011;43147;50.972;18.210;2023-06-10T10:01:28;8.30;;;6.60;;
57297;SDS011;43147;50.972;18.210;2023-06-10T10:03:56;8.60;;;7.00;;
57297;SDS011;43147;50.972;18.210;2023-06-10T10:06:21;13.50;;;6.00;;
57297;SDS011;43147;50.972;18.210;2023-06-10T10:08:49;5.90;;;5.50;;
57297;SDS011;43147;50.972;18.210;2023-06-10T10:11:22;8.00;;;6.40;;
57297;SDS011;43147;50.972;18.210;2023-06-10T10:13:49;6.30;;;5.80;;
57297;SDS011;43147;50.972;18.210;2023-06-10T10:16:20;11.50;;;6.30;;
57297;SDS011;43147;50.972;18.210;2023-06-10T10:18:59;8.80;;;5.60;;
57297;SDS011;43147;50.972;18.210;2023-06-10T10:21:46;5.70;;;5.10;;
57297;SDS011;43147;50.972;18.210;2023-06-10T10:24:23;7.50;;;6.30;;
57297;SDS011;43147;50.972;18.210;2023-06-10T10:26:51;5.90;;;5.40;;
57297;SDS011;43147;50.972;18.210;2023-06-10T10:29:23;8.10;;;6.20;;
57297;SDS011;43147;50.972;18.210;2023-06-10T10:31:50;9.90;;;6.40;;
57297;SDS011;43147;50.972;18.210;2023-06-10T10:34:21;7.80;;;6.10;;
57297;SDS011;43147;50.972;18.210;2023-06-10T10:36:51;6.50;;;5.60;;
57297;SDS011;43147;50.972;18.210;2023-06-10T10:39:17;6.60;;;5.90;;
57297;SDS011;43147;50.972;18.210;2023-06-10T10:41:43;9.80;;;5.80;;
57297;SDS011;43147;50.972;18.210;2023-06-10T10:44:09;8.70;;;5.70;;
57297;SDS011;43147;50.972;18.210;2023-06-10T10:46:43;9.10;;;5.20;;
57297;SDS011;43147;50.972;18.210;2023-06-10T10:49:10;6.10;;;5.50;;
57297;SDS011;43147;50.972;18.210;2023-06-10T10:51:38;10.60;;;5.70;;
57297;SDS011;43147;50.972;18.210;2023-06-10T10:54:20;10.10;;;5.80;;
57297;SDS011;43147;50.972;18.210;2023-06-10T10:59:57;8.80;;;6.70;;
57297;SDS011;43147;50.972;18.210;2023-06-10T11:05:04;8.90;;;7.30;;
57297;SDS011;43147;50.972;18.210;2023-06-10T11:07:31;8.50;;;7.70;;
57297;SDS011;43147;50.972;18.210;2023-06-10T11:12:25;11.00;;;7.50;;
57297;SDS011;43147;50.972;18.210;2023-06-10T11:14:54;10.30;;;8.90;;
57297;SDS011;43147;50.972;18.210;2023-06-10T11:17:23;9.50;;;8.00;;
57297;SDS011;43147;50.972;18.210;2023-06-10T11:19:50;8.80;;;7.90;;
57297;SDS011;43147;50.972;18.210;2023-06-10T11:22:16;10.20;;;7.80;;
57297;SDS011;43147;50.972;18.210;2023-06-10T11:24:51;7.30;;;6.60;;
57297;SDS011;43147;50.972;18.210;2023-06-10T11:27:22;9.10;;;6.60;;
57297;SDS011;43147;50.972;18.210;2023-06-10T11:32:23;6.40;;;5.70;;
57297;SDS011;43147;50.972;18.210;2023-06-10T11:34:53;6.30;;;5.60;;
57297;SDS011;43147;50.972;18.210;2023-06-10T11:37:19;6.80;;;5.30;;
57297;SDS011;43147;50.972;18.210;2023-06-10T11:39:46;7.40;;;5.90;;
57297;SDS011;43147;50.972;18.210;2023-06-10T11:42:11;6.70;;;6.10;;
57297;SDS011;43147;50.972;18.210;2023-06-10T11:44:38;6.50;;;5.50;;
57297;SDS011;43147;50.972;18.210;2023-06-10T11:47:03;7.00;;;5.90;;
57297;SDS011;43147;50.972;18.210;2023-06-10T11:49:29;8.30;;;5.70;;
57297;SDS011;43147;50.972;18.210;2023-06-10T11:51:55;7.60;;;5.60;;
57297;SDS011;43147;50.972;18.210;2023-06-10T11:54:21;7.40;;;6.50;;
57297;SDS011;43147;50.972;18.210;2023-06-10T11:56:47;6.80;;;6.20;;
57297;SDS011;43147;50.972;18.210;2023-06-10T11:59:13;7.10;;;6.40;;
57297;SDS011;43147;50.972;18.210;2023-06-10T12:01:43;6.00;;;5.40;;
57297;SDS011;43147;50.972;18.210;2023-06-10T12:04:13;8.60;;;6.30;;
57297;SDS011;43147;50.972;18.210;2023-06-10T12:06:51;6.80;;;5.70;;
57297;SDS011;43147;50.972;18.210;2023-06-10T12:09:25;6.80;;;6.20;;
57297;SDS011;43147;50.972;18.210;2023-06-10T12:17:19;8.90;;;5.50;;
57297;SDS011;43147;50.972;18.210;2023-06-10T12:19:49;6.60;;;5.90;;
57297;SDS011;43147;50.972;18.210;2023-06-10T12:22:15;6.70;;;5.70;;
57297;SDS011;43147;50.972;18.210;2023-06-10T12:24:45;5.80;;;5.20;;
57297;SDS011;43147;50.972;18.210;2023-06-10T12:27:22;7.90;;;6.00;;
57297;SDS011;43147;50.972;18.210;2023-06-10T12:29:51;5.70;;;4.20;;
57297;SDS011;43147;50.972;18.210;2023-06-10T12:32:19;8.20;;;3.60;;
57297;SDS011;43147;50.972;18.210;2023-06-10T12:34:48;10.00;;;4.40;;
57297;SDS011;43147;50.972;18.210;2023-06-10T12:37:13;7.10;;;4.30;;
57297;SDS011;43147;50.972;18.210;2023-06-10T12:39:39;11.00;;;3.90;;
57297;SDS011;43147;50.972;18.210;2023-06-10T12:42:06;7.70;;;4.30;;
57297;SDS011;43147;50.972;18.210;2023-06-10T12:44:35;6.30;;;3.80;;
57297;SDS011;43147;50.972;18.210;2023-06-10T12:47:08;6.60;;;4.10;;
57297;SDS011;43147;50.972;18.210;2023-06-10T12:49:35;6.70;;;4.70;;
57297;SDS011;43147;50.972;18.210;2023-06-10T12:52:01;6.80;;;4.20;;
57297;SDS011;43147;50.972;18.210;2023-06-10T12:54:27;4.00;;;3.50;;
57297;SDS011;43147;50.972;18.210;2023-06-10T12:56:53;6.10;;;4.10;;
57297;SDS011;43147;50.972;18.210;2023-06-10T12:59:19;6.00;;;4.00;;
57297;SDS011;43147;50.972;18.210;2023-06-10T13:01:49;7.90;;;4.40;;
57297;SDS011;43147;50.972;18.210;2023-06-10T13:04:17;7.60;;;4.60;;
57297;SDS011;43147;50.972;18.210;2023-06-10T13:06:43;9.40;;;4.50;;
57297;SDS011;43147;50.972;18.210;2023-06-10T13:09:09;5.50;;;3.50;;
57297;SDS011;43147;50.972;18.210;2023-06-10T13:11:35;6.00;;;3.50;;
57297;SDS011;43147;50.972;18.210;2023-06-10T13:14:01;5.20;;;3.50;;
57297;SDS011;43147;50.972;18.210;2023-06-10T13:16:28;5.00;;;3.60;;
57297;SDS011;43147;50.972;18.210;2023-06-10T13:18:54;7.20;;;4.40;;
57297;SDS011;43147;50.972;18.210;2023-06-10T13:21:19;6.30;;;4.70;;
57297;SDS011;43147;50.972;18.210;2023-06-10T13:23:45;7.50;;;3.70;;
57297;SDS011;43147;50.972;18.210;2023-06-10T13:26:13;7.30;;;4.30;;
57297;SDS011;43147;50.972;18.210;2023-06-10T13:28:42;6.00;;;3.70;;
57297;SDS011;43147;50.972;18.210;2023-06-10T13:31:08;5.20;;;3.60;;
57297;SDS011;43147;50.972;18.210;2023-06-10T13:33:34;10.40;;;3.70;;
57297;SDS011;43147;50.972;18.210;2023-06-10T13:36:00;11.30;;;6.00;;
57297;SDS011;43147;50.972;18.210;2023-06-10T13:38:25;8.80;;;4.70;;
57297;SDS011;43147;50.972;18.210;2023-06-10T13:40:51;12.90;;;8.30;;
57297;SDS011;43147;50.972;18.210;2023-06-10T13:43:17;7.20;;;4.40;;
57297;SDS011;43147;50.972;18.210;2023-06-10T13:45:42;5.10;;;3.80;;
57297;SDS011;43147;50.972;18.210;2023-06-10T13:48:08;8.60;;;6.60;;
57297;SDS011;43147;50.972;18.210;2023-06-10T13:50:34;6.10;;;4.20;;
57297;SDS011;43147;50.972;18.210;2023-06-10T13:53:00;8.00;;;3.50;;
57297;SDS011;43147;50.972;18.210;2023-06-10T13:55:25;9.50;;;4.00;;
57297;SDS011;43147;50.972;18.210;2023-06-10T13:57:51;9.80;;;3.50;;
57297;SDS011;43147;50.972;18.210;2023-06-10T14:00:16;11.00;;;3.90;;
57297;SDS011;43147;50.972;18.210;2023-06-10T14:02:44;12.20;;;3.80;;
57297;SDS011;43147;50.972;18.210;2023-06-10T14:05:09;6.20;;;3.50;;
57297;SDS011;43147;50.972;18.210;2023-06-10T14:07:35;8.10;;;3.40;;
57297;SDS011;43147;50.972;18.210;2023-06-10T14:10:02;6.20;;;3.30;;
57297;SDS011;43147;50.972;18.210;2023-06-10T14:12:29;6.30;;;3.50;;
57297;SDS011;43147;50.972;18.210;2023-06-10T14:14:54;8.00;;;4.60;;
57297;SDS011;43147;50.972;18.210;2023-06-10T14:17:20;12.30;;;5.20;;
57297;SDS011;43147;50.972;18.210;2023-06-10T14:19:46;6.50;;;4.60;;
57297;SDS011;43147;50.972;18.210;2023-06-10T14:22:12;5.50;;;3.90;;
57297;SDS011;43147;50.972;18.210;2023-06-10T14:24:38;8.60;;;4.60;;
57297;SDS011;43147;50.972;18.210;2023-06-10T14:27:04;6.30;;;4.00;;
57297;SDS011;43147;50.972;18.210;2023-06-10T14:29:30;4.00;;;3.60;;
57297;SDS011;43147;50.972;18.210;2023-06-10T14:31:56;5.90;;;3.60;;
57297;SDS011;43147;50.972;18.210;2023-06-10T14:34:22;6.70;;;3.60;;
57297;SDS011;43147;50.972;18.210;2023-06-10T14:36:53;4.90;;;3.60;;
57297;SDS011;43147;50.972;18.210;2023-06-10T14:39:19;9.20;;;4.10;;
57297;SDS011;43147;50.972;18.210;2023-06-10T14:41:45;6.00;;;3.70;;
57297;SDS011;43147;50.972;18.210;2023-06-10T14:44:11;9.00;;;4.20;;
57297;SDS011;43147;50.972;18.210;2023-06-10T14:46:36;8.30;;;4.00;;